Colorado Springs, CO (80902)

3:04 AM MST on December 08, 2016 (GMT -0700)
Broadmoor Bluffs | | Change Station

Elev 6463 ft 38.75 °N, 104.83 °W | Updated 3 seconds ago

Overcast
Overcast
4.8 °F
Feels Like 5 °F
N
0.0
Wind Variable Wind from SE
Gusts 0.0 mph

Today
High -- | Low -- °F
--% Chance of Precip.
Yesterday
High -- | Low -- °F
Precip. -- in
Pressure 30.67 in
Visibility 9.0 miles
Clouds Overcast 400 ft
Windchill 5 °F
Dew Point -3 °F
Humidity 70%
Rainfall 0.07 in
Snow Depth Not available.
7:05 AM 4:37 PM
First Quarter, 62% visible
METAR KFCS 080958Z AUTO 00000KT 9SM -SN OVC004 M15/M17 A3034 RMK AO2 SNE0858FZDZB0858E21SNB45 OVC V BKN SLP385 P0000 T11511173 TSNO $
Pressure 30.67 in
Visibility 9.0 miles
Clouds Overcast 400 ft
Windchill 5 °F
Dew Point -3 °F
Humidity 70%
Rainfall 0.07 in
Snow Depth Not available.
7:05 AM 4:37 PM
First Quarter, 62% visible
METAR KFCS 080958Z AUTO 00000KT 9SM -SN OVC004 M15/M17 A3034 RMK AO2 SNE0858FZDZB0858E21SNB45 OVC V BKN SLP385 P0000 T11511173 TSNO $

10-Day Weather Forecast

Almanac

Astronomy

Dec. 08, 2016 Rise Set
Actual Time
Civil Twilight
Nautical Twilight
Astronomical Twilight
Moon
Length of Visible Light
Length of Day
Tomorrow will be .
, % of the Moon is Illuminated

Today's Extremes

State Highs State Lows

Community

WunderPhotos

Upload Photos

1,956,261 photos uploaded!

WunderBlog® & News

Nearby

Air Quality

  Air Quality AQ Index Pollutant
Not available.

Snow Depth

Station Depth Elevation

Earthquake Activity

City Distance Mag. Time & Date
Minimum magnitude displayed is 2.5.

Coastal Water Temperatures

Place Temperature

Stations

Nearby Weather Stations

Station Location Temp. Windchill Dew Point Humidity Wind Precip. Elev Updated Type
                   

Watches & Warnings

There are currently no watches in effect.